sensor_id;sensor_type;location;lat;lon;timestamp;pressure;altitude;pressure_sealevel;temperature;humidity
26775;BME280;14362;51.902;7.626;2023-06-14T00:02:32;100873.63;;;19.82;46.75
26775;BME280;14362;51.902;7.626;2023-06-14T00:06:34;100880.88;;;19.80;46.89
26775;BME280;14362;51.902;7.626;2023-06-14T00:10:37;100883.50;;;19.66;47.71
26775;BME280;14362;51.902;7.626;2023-06-14T00:14:41;100885.47;;;19.62;47.33
26775;BME280;14362;51.902;7.626;2023-06-14T00:18:42;100888.69;;;19.60;47.62
26775;BME280;14362;51.902;7.626;2023-06-14T00:22:43;100884.41;;;19.48;47.95
26775;BME280;14362;51.902;7.626;2023-06-14T00:26:46;100894.00;;;19.40;48.61
26775;BME280;14362;51.902;7.626;2023-06-14T00:30:48;100903.09;;;19.52;47.72
26775;BME280;14362;51.902;7.626;2023-06-14T00:34:49;100888.59;;;19.31;49.51
26775;BME280;14362;51.902;7.626;2023-06-14T00:38:51;100884.84;;;19.24;49.04
26775;BME280;14362;51.902;7.626;2023-06-14T00:42:54;100896.84;;;19.17;49.11
26775;BME280;14362;51.902;7.626;2023-06-14T00:46:55;100897.44;;;19.07;49.67
26775;BME280;14362;51.902;7.626;2023-06-14T00:50:56;100902.22;;;19.03;50.22
26775;BME280;14362;51.902;7.626;2023-06-14T00:54:59;100895.19;;;19.16;49.63
26775;BME280;14362;51.902;7.626;2023-06-14T00:59:02;100899.19;;;18.93;50.24
26775;BME280;14362;51.902;7.626;2023-06-14T01:03:03;100903.53;;;18.87;50.75
26775;BME280;14362;51.902;7.626;2023-06-14T01:07:10;100901.81;;;18.82;51.39
26775;BME280;14362;51.902;7.626;2023-06-14T01:11:19;100913.06;;;18.79;51.75
26775;BME280;14362;51.902;7.626;2023-06-14T01:15:24;100910.97;;;18.76;51.59
26775;BME280;14362;51.902;7.626;2023-06-14T01:19:26;100912.06;;;18.68;51.37
26775;BME280;14362;51.902;7.626;2023-06-14T01:23:29;100915.53;;;18.61;52.29
26775;BME280;14362;51.902;7.626;2023-06-14T01:27:32;100917.56;;;18.61;52.70
26775;BME280;14362;51.902;7.626;2023-06-14T01:31:34;100923.03;;;18.54;53.06
26775;BME280;14362;51.902;7.626;2023-06-14T01:35:43;100924.97;;;18.50;53.67
26775;BME280;14362;51.902;7.626;2023-06-14T01:39:47;100929.31;;;18.44;53.16
26775;BME280;14362;51.902;7.626;2023-06-14T01:43:50;100932.03;;;18.41;54.05
26775;BME280;14362;51.902;7.626;2023-06-14T01:47:53;100928.34;;;18.37;53.93
26775;BME280;14362;51.902;7.626;2023-06-14T01:51:55;100922.94;;;18.47;53.49
26775;BME280;14362;51.902;7.626;2023-06-14T01:55:57;100922.47;;;18.26;55.25
26775;BME280;14362;51.902;7.626;2023-06-14T01:59:59;100930.81;;;18.23;54.71
26775;BME280;14362;51.902;7.626;2023-06-14T02:04:00;100918.13;;;18.13;56.23
26775;BME280;14362;51.902;7.626;2023-06-14T02:08:02;100917.31;;;18.13;55.80
26775;BME280;14362;51.902;7.626;2023-06-14T02:12:06;100922.34;;;18.04;56.47
26775;BME280;14362;51.902;7.626;2023-06-14T02:16:07;100922.56;;;17.95;56.57
26775;BME280;14362;51.902;7.626;2023-06-14T02:20:10;100922.03;;;17.90;57.50
26775;BME280;14362;51.902;7.626;2023-06-14T02:24:12;100921.69;;;17.91;56.80
26775;BME280;14362;51.902;7.626;2023-06-14T02:28:15;100912.66;;;17.86;57.56
26775;BME280;14362;51.902;7.626;2023-06-14T02:32:16;100921.44;;;17.81;57.71
26775;BME280;14362;51.902;7.626;2023-06-14T02:36:18;100924.53;;;17.76;59.00
26775;BME280;14362;51.902;7.626;2023-06-14T02:40:20;100934.91;;;17.72;59.39
26775;BME280;14362;51.902;7.626;2023-06-14T02:44:25;100936.47;;;17.69;58.88
26775;BME280;14362;51.902;7.626;2023-06-14T02:48:27;100937.13;;;17.63;59.24
26775;BME280;14362;51.902;7.626;2023-06-14T02:52:29;100922.91;;;17.59;59.92
26775;BME280;14362;51.902;7.626;2023-06-14T02:56:30;100936.88;;;17.52;61.36
26775;BME280;14362;51.902;7.626;2023-06-14T03:00:33;100940.03;;;17.51;61.03
26775;BME280;14362;51.902;7.626;2023-06-14T03:04:35;100950.78;;;17.46;60.90
26775;BME280;14362;51.902;7.626;2023-06-14T03:08:38;100958.16;;;17.35;62.05
26775;BME280;14362;51.902;7.626;2023-06-14T03:12:40;100955.16;;;17.43;61.83
26775;BME280;14362;51.902;7.626;2023-06-14T03:16:42;100962.59;;;17.36;62.08
26775;BME280;14362;51.902;7.626;2023-06-14T03:20:44;100977.75;;;17.31;62.88
26775;BME280;14362;51.902;7.626;2023-06-14T03:24:45;100977.47;;;17.21;63.63
26775;BME280;14362;51.902;7.626;2023-06-14T03:28:47;100981.91;;;17.22;63.92
26775;BME280;14362;51.902;7.626;2023-06-14T03:32:51;100985.09;;;17.20;63.98
26775;BME280;14362;51.902;7.626;2023-06-14T03:36:53;100988.09;;;17.12;64.63
26775;BME280;14362;51.902;7.626;2023-06-14T03:40:54;100989.28;;;17.26;63.99
26775;BME280;14362;51.902;7.626;2023-06-14T03:44:55;100993.25;;;17.10;67.12
26775;BME280;14362;51.902;7.626;2023-06-14T03:48:58;101008.53;;;17.09;65.44
26775;BME280;14362;51.902;7.626;2023-06-14T03:53:00;101001.81;;;17.13;65.04
26775;BME280;14362;51.902;7.626;2023-06-14T03:57:02;101004.78;;;17.05;67.17
26775;BME280;14362;51.902;7.626;2023-06-14T04:01:03;101009.88;;;16.99;68.10
26775;BME280;14362;51.902;7.626;2023-06-14T04:05:08;101021.69;;;17.05;69.75
26775;BME280;14362;51.902;7.626;2023-06-14T04:09:10;101035.31;;;17.03;70.16
26775;BME280;14362;51.902;7.626;2023-06-14T04:13:11;101031.78;;;17.06;70.97
26775;BME280;14362;51.902;7.626;2023-06-14T04:17:13;101024.97;;;17.07;71.10
26775;BME280;14362;51.902;7.626;2023-06-14T04:21:16;101035.78;;;17.05;72.20
26775;BME280;14362;51.902;7.626;2023-06-14T04:25:18;101045.84;;;17.06;71.22
26775;BME280;14362;51.902;7.626;2023-06-14T04:29:19;101050.25;;;17.19;69.45
26775;BME280;14362;51.902;7.626;2023-06-14T04:33:21;101044.22;;;17.05;71.46
26775;BME280;14362;51.902;7.626;2023-06-14T04:37:24;101036.16;;;17.19;69.77
26775;BME280;14362;51.902;7.626;2023-06-14T04:41:28;101047.59;;;17.10;70.86
26775;BME280;14362;51.902;7.626;2023-06-14T04:45:30;101052.03;;;17.11;71.95
26775;BME280;14362;51.902;7.626;2023-06-14T04:49:32;101061.72;;;17.26;72.88
26775;BME280;14362;51.902;7.626;2023-06-14T04:53:35;101069.69;;;17.36;71.06
26775;BME280;14362;51.902;7.626;2023-06-14T04:57:37;101059.31;;;17.40;73.00
26775;BME280;14362;51.902;7.626;2023-06-14T05:01:38;101057.69;;;17.54;69.20
26775;BME280;14362;51.902;7.626;2023-06-14T05:05:40;101062.34;;;17.62;69.98
26775;BME280;14362;51.902;7.626;2023-06-14T05:09:44;101073.25;;;17.79;69.51
26775;BME280;14362;51.902;7.626;2023-06-14T05:13:45;101080.16;;;17.81;67.81
26775;BME280;14362;51.902;7.626;2023-06-14T05:17:47;101078.88;;;17.94;66.47
26775;BME280;14362;51.902;7.626;2023-06-14T05:21:53;101074.13;;;17.98;65.79
26775;BME280;14362;51.902;7.626;2023-06-14T05:25:56;101074.56;;;18.31;66.32
26775;BME280;14362;51.902;7.626;2023-06-14T05:29:57;101077.69;;;18.79;64.91
26775;BME280;14362;51.902;7.626;2023-06-14T05:33:59;101073.53;;;19.30;62.07
26775;BME280;14362;51.902;7.626;2023-06-14T05:38:00;101069.88;;;19.71;58.12
26775;BME280;14362;51.902;7.626;2023-06-14T05:42:03;101084.47;;;20.21;55.69
26775;BME280;14362;51.902;7.626;2023-06-14T05:46:06;101081.91;;;20.64;55.04
26775;BME280;14362;51.902;7.626;2023-06-14T05:50:08;101091.25;;;20.94;53.18
26775;BME280;14362;51.902;7.626;2023-06-14T05:54:10;101085.72;;;21.05;52.08
26775;BME280;14362;51.902;7.626;2023-06-14T05:58:13;101094.19;;;21.34;51.92
26775;BME280;14362;51.902;7.626;2023-06-14T06:02:14;101102.50;;;21.53;51.17
26775;BME280;14362;51.902;7.626;2023-06-14T06:06:16;101103.53;;;21.71;50.56
26775;BME280;14362;51.902;7.626;2023-06-14T06:10:17;101097.41;;;21.66;50.49
26775;BME280;14362;51.902;7.626;2023-06-14T06:14:20;101104.88;;;21.48;51.42
26775;BME280;14362;51.902;7.626;2023-06-14T06:18:21;101098.44;;;21.51;51.46
26775;BME280;14362;51.902;7.626;2023-06-14T06:22:23;101095.34;;;21.30;51.36
26775;BME280;14362;51.902;7.626;2023-06-14T06:26:24;101081.66;;;21.39;51.33
26775;BME280;14362;51.902;7.626;2023-06-14T06:30:28;101094.03;;;21.20;50.92
26775;BME280;14362;51.902;7.626;2023-06-14T06:34:29;101093.75;;;21.32;50.86
26775;BME280;14362;51.902;7.626;2023-06-14T06:38:31;101108.03;;;21.43;51.05
26775;BME280;14362;51.902;7.626;2023-06-14T06:42:32;101109.88;;;21.58;49.72
26775;BME280;14362;51.902;7.626;2023-06-14T06:46:35;101105.44;;;21.60;49.68
26775;BME280;14362;51.902;7.626;2023-06-14T06:50:40;101130.72;;;21.75;50.10
26775;BME280;14362;51.902;7.626;2023-06-14T06:54:41;101129.53;;;21.76;48.77
26775;BME280;14362;51.902;7.626;2023-06-14T06:58:42;101128.00;;;21.50;48.48
26775;BME280;14362;51.902;7.626;2023-06-14T07:02:45;101136.53;;;21.53;48.89
26775;BME280;14362;51.902;7.626;2023-06-14T07:06:47;101134.63;;;21.61;48.32
26775;BME280;14362;51.902;7.626;2023-06-14T07:10:48;101132.31;;;21.70;48.02
26775;BME280;14362;51.902;7.626;2023-06-14T07:14:49;101142.38;;;21.64;47.22
26775;BME280;14362;51.902;7.626;2023-06-14T07:18:52;101157.53;;;21.78;46.26
26775;BME280;14362;51.902;7.626;2023-06-14T07:22:54;101146.69;;;21.54;44.88
26775;BME280;14362;51.902;7.626;2023-06-14T07:26:55;101149.66;;;21.65;45.31
26775;BME280;14362;51.902;7.626;2023-06-14T07:30:56;101137.59;;;21.74;44.71
26775;BME280;14362;51.902;7.626;2023-06-14T07:34:59;101139.28;;;21.79;44.32
26775;BME280;14362;51.902;7.626;2023-06-14T07:39:00;101151.47;;;21.83;44.16
26775;BME280;14362;51.902;7.626;2023-06-14T07:43:03;101136.94;;;21.88;45.33
26775;BME280;14362;51.902;7.626;2023-06-14T07:47:05;101138.69;;;21.99;45.71
26775;BME280;14362;51.902;7.626;2023-06-14T07:51:08;101128.31;;;22.21;44.45
26775;BME280;14362;51.902;7.626;2023-06-14T07:55:09;101137.84;;;21.99;44.64
26775;BME280;14362;51.902;7.626;2023-06-14T07:59:10;101139.09;;;21.98;45.22
26775;BME280;14362;51.902;7.626;2023-06-14T08:03:12;101148.63;;;21.79;45.34
26775;BME280;14362;51.902;7.626;2023-06-14T08:07:15;101144.91;;;21.43;45.43
26775;BME280;14362;51.902;7.626;2023-06-14T08:11:17;101146.53;;;21.76;45.11
26775;BME280;14362;51.902;7.626;2023-06-14T08:15:18;101160.75;;;21.80;44.82
26775;BME280;14362;51.902;7.626;2023-06-14T08:19:20;101154.28;;;21.79;44.35
26775;BME280;14362;51.902;7.626;2023-06-14T08:23:23;101152.34;;;21.87;45.73
26775;BME280;14362;51.902;7.626;2023-06-14T08:27:25;101156.50;;;22.00;44.26
26775;BME280;14362;51.902;7.626;2023-06-14T08:31:26;101148.22;;;21.81;45.34
26775;BME280;14362;51.902;7.626;2023-06-14T08:35:28;101153.72;;;22.03;44.83
26775;BME280;14362;51.902;7.626;2023-06-14T08:39:31;101161.50;;;22.10;43.70
26775;BME280;14362;51.902;7.626;2023-06-14T08:43:33;101156.25;;;21.75;43.33
26775;BME280;14362;51.902;7.626;2023-06-14T08:47:34;101149.50;;;21.87;43.59
26775;BME280;14362;51.902;7.626;2023-06-14T08:51:38;101156.84;;;21.91;42.75
26775;BME280;14362;51.902;7.626;2023-06-14T08:55:42;101150.28;;;21.84;42.99
26775;BME280;14362;51.902;7.626;2023-06-14T08:59:46;101153.66;;;22.00;43.36
26775;BME280;14362;51.902;7.626;2023-06-14T09:03:52;101151.34;;;22.09;42.42
26775;BME280;14362;51.902;7.626;2023-06-14T09:07:55;101156.66;;;22.14;42.67
26775;BME280;14362;51.902;7.626;2023-06-14T09:12:02;101151.47;;;21.83;42.81
26775;BME280;14362;51.902;7.626;2023-06-14T09:16:04;101168.56;;;21.86;43.41
26775;BME280;14362;51.902;7.626;2023-06-14T09:20:07;101167.81;;;21.93;43.34
26775;BME280;14362;51.902;7.626;2023-06-14T09:24:13;101156.78;;;21.84;43.82
26775;BME280;14362;51.902;7.626;2023-06-14T09:28:15;101164.84;;;21.79;44.20
26775;BME280;14362;51.902;7.626;2023-06-14T09:32:17;101177.88;;;21.87;43.64
26775;BME280;14362;51.902;7.626;2023-06-14T09:36:22;101168.91;;;21.81;44.73
26775;BME280;14362;51.902;7.626;2023-06-14T09:40:23;101173.94;;;21.98;44.46
26775;BME280;14362;51.902;7.626;2023-06-14T09:44:26;101186.06;;;21.92;44.85
26775;BME280;14362;51.902;7.626;2023-06-14T09:48:30;101185.97;;;21.85;44.34
26775;BME280;14362;51.902;7.626;2023-06-14T09:52:31;101170.00;;;21.70;44.71
26775;BME280;14362;51.902;7.626;2023-06-14T09:56:37;101189.25;;;21.87;45.80
26775;BME280;14362;51.902;7.626;2023-06-14T10:00:40;101173.44;;;21.89;46.84
26775;BME280;14362;51.902;7.626;2023-06-14T10:04:46;101168.34;;;22.05;45.59
26775;BME280;14362;51.902;7.626;2023-06-14T10:08:48;101180.81;;;21.94;44.73
26775;BME280;14362;51.902;7.626;2023-06-14T10:12:50;101178.41;;;21.99;45.72
26775;BME280;14362;51.902;7.626;2023-06-14T10:16:56;101169.47;;;21.97;45.30
26775;BME280;14362;51.902;7.626;2023-06-14T10:21:08;101174.28;;;21.93;45.43
26775;BME280;14362;51.902;7.626;2023-06-14T10:25:26;101170.44;;;22.12;45.89
26775;BME280;14362;51.902;7.626;2023-06-14T10:29:27;101160.97;;;22.37;46.45
26775;BME280;14362;51.902;7.626;2023-06-14T10:33:34;101169.94;;;22.46;46.07
26775;BME280;14362;51.902;7.626;2023-06-14T10:37:35;101173.38;;;22.69;45.65
26775;BME280;14362;51.902;7.626;2023-06-14T10:41:38;101179.31;;;22.47;45.23
26775;BME280;14362;51.902;7.626;2023-06-14T10:46:11;101167.16;;;22.53;44.88
26775;BME280;14362;51.902;7.626;2023-06-14T10:50:14;101170.00;;;22.50;45.41
26775;BME280;14362;51.902;7.626;2023-06-14T10:54:20;101171.47;;;22.33;45.42
26775;BME280;14362;51.902;7.626;2023-06-14T10:58:22;101148.50;;;22.52;45.56
26775;BME280;14362;51.902;7.626;2023-06-14T11:02:46;101155.53;;;22.69;46.39
26775;BME280;14362;51.902;7.626;2023-06-14T11:06:50;101160.38;;;22.68;44.24
26775;BME280;14362;51.902;7.626;2023-06-14T11:10:54;101153.38;;;22.55;45.86
26775;BME280;14362;51.902;7.626;2023-06-14T11:15:00;101157.06;;;22.59;46.34
26775;BME280;14362;51.902;7.626;2023-06-14T11:19:01;101150.19;;;22.60;45.90
26775;BME280;14362;51.902;7.626;2023-06-14T11:23:06;101153.19;;;22.88;45.08
26775;BME280;14362;51.902;7.626;2023-06-14T11:27:07;101147.13;;;22.93;43.90
26775;BME280;14362;51.902;7.626;2023-06-14T11:31:09;101152.41;;;22.94;43.68
26775;BME280;14362;51.902;7.626;2023-06-14T11:35:10;101133.72;;;22.93;43.88
26775;BME280;14362;51.902;7.626;2023-06-14T11:39:13;101129.66;;;22.94;43.50
26775;BME280;14362;51.902;7.626;2023-06-14T11:43:15;101132.22;;;23.06;44.52
26775;BME280;14362;51.902;7.626;2023-06-14T11:47:17;101126.63;;;23.31;44.54
26775;BME280;14362;51.902;7.626;2023-06-14T11:51:19;101137.28;;;23.48;42.64
26775;BME280;14362;51.902;7.626;2023-06-14T11:55:22;101144.59;;;23.52;43.13
26775;BME280;14362;51.902;7.626;2023-06-14T11:59:24;101133.59;;;23.44;42.91
26775;BME280;14362;51.902;7.626;2023-06-14T12:03:26;101135.66;;;23.61;43.10
26775;BME280;14362;51.902;7.626;2023-06-14T12:07:30;101132.44;;;23.62;42.84
26775;BME280;14362;51.902;7.626;2023-06-14T12:11:34;101132.03;;;23.64;42.59
26775;BME280;14362;51.902;7.626;2023-06-14T12:15:36;101127.50;;;23.49;42.57
26775;BME280;14362;51.902;7.626;2023-06-14T12:19:43;101130.00;;;23.68;42.35
26775;BME280;14362;51.902;7.626;2023-06-14T12:23:46;101133.66;;;23.65;43.00
26775;BME280;14362;51.902;7.626;2023-06-14T12:27:49;101136.19;;;23.80;41.93
26775;BME280;14362;51.902;7.626;2023-06-14T12:31:50;101134.50;;;23.72;41.58
26775;BME280;14362;51.902;7.626;2023-06-14T12:35:55;101141.06;;;23.86;41.54
26775;BME280;14362;51.902;7.626;2023-06-14T12:39:57;101138.63;;;23.88;41.01
26775;BME280;14362;51.902;7.626;2023-06-14T12:43:59;101130.50;;;23.90;41.63
26775;BME280;14362;51.902;7.626;2023-06-14T12:48:04;101139.06;;;24.15;41.86
26775;BME280;14362;51.902;7.626;2023-06-14T12:52:07;101131.69;;;23.79;41.93
26775;BME280;14362;51.902;7.626;2023-06-14T12:56:08;101138.97;;;23.70;41.82
26775;BME280;14362;51.902;7.626;2023-06-14T13:00:12;101137.38;;;23.83;42.17
26775;BME280;14362;51.902;7.626;2023-06-14T13:04:14;101139.84;;;24.01;40.35
26775;BME280;14362;51.902;7.626;2023-06-14T13:08:15;101136.59;;;23.99;41.45
26775;BME280;14362;51.902;7.626;2023-06-14T13:12:17;101134.19;;;24.15;40.83
26775;BME280;14362;51.902;7.626;2023-06-14T13:16:19;101127.66;;;24.25;40.36
26775;BME280;14362;51.902;7.626;2023-06-14T13:20:21;101142.34;;;24.27;40.81
26775;BME280;14362;51.902;7.626;2023-06-14T13:24:22;101137.41;;;23.89;40.36
26775;BME280;14362;51.902;7.626;2023-06-14T13:28:24;101129.72;;;24.04;40.76
26775;BME280;14362;51.902;7.626;2023-06-14T13:32:26;101140.28;;;24.24;41.30
26775;BME280;14362;51.902;7.626;2023-06-14T13:36:28;101138.69;;;24.30;40.29
26775;BME280;14362;51.902;7.626;2023-06-14T13:40:30;101119.13;;;24.43;40.07
26775;BME280;14362;51.902;7.626;2023-06-14T13:44:31;101128.50;;;24.54;39.97
26775;BME280;14362;51.902;7.626;2023-06-14T13:48:36;101143.53;;;24.75;40.25
26775;BME280;14362;51.902;7.626;2023-06-14T13:52:38;101127.63;;;24.85;40.39
26775;BME280;14362;51.902;7.626;2023-06-14T13:56:39;101118.66;;;24.89;39.64
26775;BME280;14362;51.902;7.626;2023-06-14T14:00:40;101124.75;;;24.98;39.12
26775;BME280;14362;51.902;7.626;2023-06-14T14:04:43;101124.38;;;24.79;39.82
26775;BME280;14362;51.902;7.626;2023-06-14T14:08:45;101113.00;;;24.76;38.91
26775;BME280;14362;51.902;7.626;2023-06-14T14:12:46;101106.84;;;24.88;39.45
26775;BME280;14362;51.902;7.626;2023-06-14T14:16:48;101112.94;;;24.89;39.26
26775;BME280;14362;51.902;7.626;2023-06-14T14:20:50;101114.63;;;24.45;39.83
26775;BME280;14362;51.902;7.626;2023-06-14T14:24:52;101119.94;;;24.71;38.66
26775;BME280;14362;51.902;7.626;2023-06-14T14:28:53;101112.59;;;24.67;39.19
26775;BME280;14362;51.902;7.626;2023-06-14T14:32:55;101101.19;;;24.81;39.14
26775;BME280;14362;51.902;7.626;2023-06-14T14:36:57;101107.63;;;25.02;38.94
26775;BME280;14362;51.902;7.626;2023-06-14T14:40:59;101116.13;;;25.23;39.53
26775;BME280;14362;51.902;7.626;2023-06-14T14:45:00;101123.47;;;25.17;38.69
26775;BME280;14362;51.902;7.626;2023-06-14T14:49:02;101121.13;;;24.91;39.39
26775;BME280;14362;51.902;7.626;2023-06-14T14:53:05;101109.63;;;25.19;39.42
26775;BME280;14362;51.902;7.626;2023-06-14T14:57:06;101109.63;;;25.08;38.82
26775;BME280;14362;51.902;7.626;2023-06-14T15:01:08;101113.63;;;25.35;38.92
26775;BME280;14362;51.902;7.626;2023-06-14T15:05:09;101102.16;;;25.46;38.53
26775;BME280;14362;51.902;7.626;2023-06-14T15:09:12;101102.16;;;25.46;39.27
26775;BME280;14362;51.902;7.626;2023-06-14T15:13:14;101103.91;;;25.19;39.21
26775;BME280;14362;51.902;7.626;2023-06-14T15:17:16;101111.97;;;25.38;38.87
26775;BME280;14362;51.902;7.626;2023-06-14T15:21:18;101101.72;;;25.51;38.43
26775;BME280;14362;51.902;7.626;2023-06-14T15:25:21;101102.09;;;25.56;38.13
26775;BME280;14362;51.902;7.626;2023-06-14T15:29:25;101099.25;;;25.56;37.93
26775;BME280;14362;51.902;7.626;2023-06-14T15:33:26;101098.19;;;25.26;38.57
26775;BME280;14362;51.902;7.626;2023-06-14T15:37:28;101104.63;;;25.44;39.61
26775;BME280;14362;51.902;7.626;2023-06-14T15:41:30;101105.06;;;25.35;38.64
26775;BME280;14362;51.902;7.626;2023-06-14T15:45:32;101103.91;;;25.12;37.80
26775;BME280;14362;51.902;7.626;2023-06-14T15:49:33;101110.13;;;24.86;39.74
26775;BME280;14362;51.902;7.626;2023-06-14T15:53:35;101112.47;;;25.12;39.05
26775;BME280;14362;51.902;7.626;2023-06-14T15:57:38;101096.19;;;25.19;39.09
26775;BME280;14362;51.902;7.626;2023-06-14T16:01:40;101100.16;;;25.36;39.09
26775;BME280;14362;51.902;7.626;2023-06-14T16:05:41;101099.00;;;25.23;38.27
26775;BME280;14362;51.902;7.626;2023-06-14T16:09:43;101100.25;;;25.15;39.12
26775;BME280;14362;51.902;7.626;2023-06-14T16:13:46;101102.78;;;24.88;39.12
26775;BME280;14362;51.902;7.626;2023-06-14T16:17:47;101097.91;;;24.82;39.05
26775;BME280;14362;51.902;7.626;2023-06-14T16:21:49;101091.41;;;24.82;39.59
26775;BME280;14362;51.902;7.626;2023-06-14T16:25:50;101087.69;;;24.85;39.76
26775;BME280;14362;51.902;7.626;2023-06-14T16:29:53;101085.25;;;24.90;40.16
26775;BME280;14362;51.902;7.626;2023-06-14T16:33:54;101094.59;;;24.94;39.75
26775;BME280;14362;51.902;7.626;2023-06-14T16:37:56;101095.41;;;24.98;39.74
26775;BME280;14362;51.902;7.626;2023-06-14T16:41:57;101102.34;;;25.00;39.51
26775;BME280;14362;51.902;7.626;2023-06-14T16:46:00;101095.00;;;24.99;39.81
26775;BME280;14362;51.902;7.626;2023-06-14T16:50:02;101105.97;;;25.08;39.56
26775;BME280;14362;51.902;7.626;2023-06-14T16:54:03;101108.03;;;24.97;39.06
26775;BME280;14362;51.902;7.626;2023-06-14T16:58:05;101113.78;;;24.87;38.96
26775;BME280;14362;51.902;7.626;2023-06-14T17:02:07;101108.84;;;24.94;39.08
26775;BME280;14362;51.902;7.626;2023-06-14T17:06:09;101110.56;;;24.78;39.14
26775;BME280;14362;51.902;7.626;2023-06-14T17:10:10;101114.59;;;24.84;39.83
26775;BME280;14362;51.902;7.626;2023-06-14T17:14:12;101118.66;;;24.96;39.53
26775;BME280;14362;51.902;7.626;2023-06-14T17:18:15;101112.91;;;25.07;40.03
26775;BME280;14362;51.902;7.626;2023-06-14T17:22:16;101115.41;;;24.84;40.01
26775;BME280;14362;51.902;7.626;2023-06-14T17:26:18;101111.72;;;24.90;40.34
26775;BME280;14362;51.902;7.626;2023-06-14T17:30:19;101114.22;;;24.82;40.54
26775;BME280;14362;51.902;7.626;2023-06-14T17:34:22;101118.69;;;24.86;39.77
26775;BME280;14362;51.902;7.626;2023-06-14T17:38:23;101104.41;;;24.89;39.18
26775;BME280;14362;51.902;7.626;2023-06-14T17:42:26;101108.50;;;24.85;39.34
26775;BME280;14362;51.902;7.626;2023-06-14T17:46:28;101111.34;;;24.85;39.53
26775;BME280;14362;51.902;7.626;2023-06-14T17:50:30;101109.28;;;24.86;40.12
26775;BME280;14362;51.902;7.626;2023-06-14T17:54:34;101113.78;;;24.87;39.94
26775;BME280;14362;51.902;7.626;2023-06-14T17:58:35;101107.19;;;25.03;39.65
26775;BME280;14362;51.902;7.626;2023-06-14T18:02:37;101115.31;;;25.12;40.53
26775;BME280;14362;51.902;7.626;2023-06-14T18:06:39;101111.28;;;24.99;40.41
26775;BME280;14362;51.902;7.626;2023-06-14T18:10:41;101117.00;;;24.99;40.38
26775;BME280;14362;51.902;7.626;2023-06-14T18:14:42;101125.22;;;24.80;40.99
26775;BME280;14362;51.902;7.626;2023-06-14T18:18:44;101119.91;;;24.85;40.86
26775;BME280;14362;51.902;7.626;2023-06-14T18:22:47;101130.91;;;24.76;41.37
26775;BME280;14362;51.902;7.626;2023-06-14T18:26:49;101127.69;;;24.60;42.24
26775;BME280;14362;51.902;7.626;2023-06-14T18:30:50;101130.56;;;24.46;41.78
26775;BME280;14362;51.902;7.626;2023-06-14T18:34:52;101139.88;;;24.36;42.47
26775;BME280;14362;51.902;7.626;2023-06-14T18:38:54;101137.84;;;24.23;43.05
26775;BME280;14362;51.902;7.626;2023-06-14T18:42:56;101138.66;;;24.16;43.21
26775;BME280;14362;51.902;7.626;2023-06-14T18:46:57;101143.94;;;24.04;43.53
26775;BME280;14362;51.902;7.626;2023-06-14T18:50:59;101135.38;;;23.86;43.68
26775;BME280;14362;51.902;7.626;2023-06-14T18:55:02;101145.53;;;23.84;44.16
26775;BME280;14362;51.902;7.626;2023-06-14T18:59:03;101141.47;;;23.78;44.81
26775;BME280;14362;51.902;7.626;2023-06-14T19:03:05;101144.25;;;23.64;45.52
26775;BME280;14362;51.902;7.626;2023-06-14T19:07:06;101150.75;;;23.72;45.41
26775;BME280;14362;51.902;7.626;2023-06-14T19:11:10;101148.66;;;23.51;46.08
26775;BME280;14362;51.902;7.626;2023-06-14T19:15:11;101147.41;;;23.42;46.78
26775;BME280;14362;51.902;7.626;2023-06-14T19:19:12;101151.47;;;23.41;46.92
26775;BME280;14362;51.902;7.626;2023-06-14T19:23:14;101155.88;;;23.28;47.48
26775;BME280;14362;51.902;7.626;2023-06-14T19:27:16;101159.03;;;23.09;48.40
26775;BME280;14362;51.902;7.626;2023-06-14T19:31:18;101163.84;;;23.05;48.36
26775;BME280;14362;51.902;7.626;2023-06-14T19:35:19;101169.88;;;22.89;49.20
26775;BME280;14362;51.902;7.626;2023-06-14T19:39:21;101172.69;;;22.86;49.15
26775;BME280;14362;51.902;7.626;2023-06-14T19:43:24;101171.00;;;22.78;49.72
26775;BME280;14362;51.902;7.626;2023-06-14T19:47:26;101179.50;;;22.74;49.87
26775;BME280;14362;51.902;7.626;2023-06-14T19:51:27;101177.44;;;22.68;49.61
26775;BME280;14362;51.902;7.626;2023-06-14T19:55:30;101185.44;;;22.52;50.33
26775;BME280;14362;51.902;7.626;2023-06-14T19:59:32;101189.00;;;22.42;51.06
26775;BME280;14362;51.902;7.626;2023-06-14T20:03:34;101198.75;;;22.41;50.51
26775;BME280;14362;51.902;7.626;2023-06-14T20:07:35;101202.25;;;22.31;50.77
26775;BME280;14362;51.902;7.626;2023-06-14T20:11:37;101208.25;;;22.19;51.77
26775;BME280;14362;51.902;7.626;2023-06-14T20:15:40;101208.56;;;22.11;52.12
26775;BME280;14362;51.902;7.626;2023-06-14T20:19:41;101212.94;;;22.05;52.09
26775;BME280;14362;51.902;7.626;2023-06-14T20:23:43;101208.78;;;21.95;52.50
26775;BME280;14362;51.902;7.626;2023-06-14T20:27:44;101211.50;;;21.85;52.96
26775;BME280;14362;51.902;7.626;2023-06-14T20:31:47;101211.03;;;21.76;54.42
26775;BME280;14362;51.902;7.626;2023-06-14T20:35:49;101214.06;;;21.61;55.64
26775;BME280;14362;51.902;7.626;2023-06-14T20:39:52;101214.31;;;21.49;56.36
26775;BME280;14362;51.902;7.626;2023-06-14T20:43:57;101215.44;;;21.44;56.35
26775;BME280;14362;51.902;7.626;2023-06-14T20:48:03;101214.09;;;21.35;56.68
26775;BME280;14362;51.902;7.626;2023-06-14T20:52:05;101214.38;;;21.26;57.21
26775;BME280;14362;51.902;7.626;2023-06-14T20:56:06;101222.38;;;21.17;58.75
26775;BME280;14362;51.902;7.626;2023-06-14T21:00:10;101229.88;;;21.06;58.92
26775;BME280;14362;51.902;7.626;2023-06-14T21:04:14;101226.13;;;20.99;58.27
26775;BME280;14362;51.902;7.626;2023-06-14T21:08:16;101220.75;;;20.90;59.80